CGJBF CYTF-CYZV

Flight info

Callsign CGJBF
Flight time 0h 57m
Altitude 29000
Route KAVMU DCT YBC
Aircraft TBM8/L-SDFGRWY/S

Departure

Time 2026-05-03 21:21
Airport Alma Airport (CYTF)

Arrival

Time 2026-05-03 22:18
Airport Sept-Îles Airport (CYZV)
Time Latitude Longitude Altitude Speed Heading
2026-05-03 21:13 48.50927 -71.65140 429 ft 0 kts 23°
2026-05-03 21:19 48.50930 -71.65138 429 ft 1 kts 17°
2026-05-03 21:19 48.50975 -71.65155 434 ft 13 kts 355°
2026-05-03 21:19 48.51029 -71.65132 434 ft 0 kts 25°
2026-05-03 21:20 48.51041 -71.65123 433 ft 12 kts 22°
2026-05-03 21:20 48.51112 -71.65063 431 ft 16 kts 59°
2026-05-03 21:20 48.51101 -71.64963 427 ft 0 kts 117°
2026-05-03 21:20 48.51061 -71.64826 429 ft 40 kts 114°
2026-05-03 21:21 48.50861 -71.64156 452 ft 96 kts 116°
2026-05-03 21:21 48.50558 -71.63139 703 ft 116 kts 117°
2026-05-03 21:21 48.50204 -71.61925 1089 ft 136 kts 115°
2026-05-03 21:21 48.49783 -71.60522 1309 ft 163 kts 116°
2026-05-03 21:22 48.49339 -71.58971 1842 ft 161 kts 106°
2026-05-03 21:22 48.49248 -71.57278 2344 ft 164 kts 88°
2026-05-03 21:22 48.49332 -71.55549 2863 ft 166 kts 85°
2026-05-03 21:22 48.49425 -71.53781 3330 ft 172 kts 86°
2026-05-03 21:23 48.49502 -71.51969 3823 ft 175 kts 87°
2026-05-03 21:23 48.49566 -71.50131 4338 ft 176 kts 88°
2026-05-03 21:23 48.49618 -71.48307 4884 ft 169 kts 89°
2026-05-03 21:23 48.49682 -71.46583 5470 ft 162 kts 88°
2026-05-03 21:24 48.49745 -71.44887 5980 ft 162 kts 88°
2026-05-03 21:24 48.49797 -71.43183 6447 ft 163 kts 89°
2026-05-03 21:24 48.49842 -71.41471 6933 ft 162 kts 90°
2026-05-03 21:24 48.49883 -71.39815 7436 ft 160 kts 89°
2026-05-03 21:25 48.49936 -71.38136 7896 ft 162 kts 89°
2026-05-03 21:25 48.49989 -71.36439 8385 ft 163 kts 90°
2026-05-03 21:25 48.50033 -71.34708 8825 ft 165 kts 90°
2026-05-03 21:25 48.50076 -71.32985 9313 ft 166 kts 90°
2026-05-03 21:26 48.50120 -71.31258 9807 ft 165 kts 89°
2026-05-03 21:26 48.50168 -71.29523 10207 ft 168 kts 89°
2026-05-03 21:26 48.50215 -71.27768 10643 ft 169 kts 90°
2026-05-03 21:26 48.50263 -71.25977 11072 ft 170 kts 90°
2026-05-03 21:27 48.50312 -71.24189 11520 ft 172 kts 89°
2026-05-03 21:27 48.50360 -71.22394 12000 ft 172 kts 89°
2026-05-03 21:27 48.50407 -71.20579 12454 ft 174 kts 89°
2026-05-03 21:27 48.50453 -71.18744 12890 ft 176 kts 89°
2026-05-03 21:28 48.50499 -71.16890 13359 ft 177 kts 89°
2026-05-03 21:28 48.50546 -71.15023 13784 ft 179 kts 89°
2026-05-03 21:28 48.50594 -71.13157 14185 ft 180 kts 89°
2026-05-03 21:28 48.50642 -71.11262 14591 ft 181 kts 89°
2026-05-03 21:29 48.50690 -71.09351 14995 ft 183 kts 89°
2026-05-03 21:29 48.50739 -71.07440 15416 ft 184 kts 89°
2026-05-03 21:29 48.50795 -71.05518 15845 ft 183 kts 85°
2026-05-03 21:29 48.50889 -71.03592 16249 ft 185 kts 85°
2026-05-03 21:30 48.50960 -71.01642 16633 ft 188 kts 87°
2026-05-03 21:30 48.51008 -70.99643 16945 ft 195 kts 88°
2026-05-03 21:30 48.51049 -70.97554 17227 ft 203 kts 88°
2026-05-03 21:30 48.51091 -70.95389 17514 ft 210 kts 87°
2026-05-03 21:31 48.51138 -70.93160 17804 ft 216 kts 87°
2026-05-03 21:31 48.51190 -70.90867 18093 ft 221 kts 87°
2026-05-03 21:31 48.51243 -70.88528 18350 ft 226 kts 88°
2026-05-03 21:31 48.51296 -70.86151 18599 ft 229 kts 88°
2026-05-03 21:32 48.51351 -70.83726 18850 ft 233 kts 88°
2026-05-03 21:32 48.51407 -70.81272 19106 ft 236 kts 88°
2026-05-03 21:32 48.51461 -70.78785 19356 ft 238 kts 89°
2026-05-03 21:32 48.51517 -70.76280 19618 ft 240 kts 89°
2026-05-03 21:33 48.51573 -70.73787 19880 ft 242 kts 89°
2026-05-03 21:33 48.51629 -70.71239 20129 ft 244 kts 89°
2026-05-03 21:33 48.51684 -70.68679 20386 ft 245 kts 90°
2026-05-03 21:33 48.51739 -70.66107 20651 ft 246 kts 90°
2026-05-03 21:34 48.51794 -70.63519 20929 ft 247 kts 90°
2026-05-03 21:34 48.51846 -70.60925 21179 ft 248 kts 92°
2026-05-03 21:34 48.51897 -70.58326 21452 ft 248 kts 92°
2026-05-03 21:34 48.51952 -70.55717 21729 ft 249 kts 92°
2026-05-03 21:35 48.52005 -70.53107 22002 ft 249 kts 92°
2026-05-03 21:35 48.52060 -70.50501 22268 ft 249 kts 92°
2026-05-03 21:35 48.52112 -70.47882 22547 ft 250 kts 94°
2026-05-03 21:35 48.52162 -70.45266 22832 ft 250 kts 94°
2026-05-03 21:36 48.52198 -70.43493 23013 ft 250 kts 94°
2026-05-03 21:36 48.52251 -70.40871 23304 ft 250 kts 94°
2026-05-03 21:36 48.52303 -70.38252 23550 ft 250 kts 94°
2026-05-03 21:36 48.52352 -70.35635 23783 ft 250 kts 95°
2026-05-03 21:37 48.52400 -70.33014 24024 ft 250 kts 95°
2026-05-03 21:37 48.52447 -70.30430 24261 ft 250 kts 95°
2026-05-03 21:37 48.52496 -70.27816 24501 ft 249 kts 95°
2026-05-03 21:37 48.52542 -70.25205 24741 ft 249 kts 96°
2026-05-03 21:38 48.52588 -70.22592 24981 ft 249 kts 96°
2026-05-03 21:38 48.52635 -70.19986 25229 ft 249 kts 96°
2026-05-03 21:38 48.52681 -70.17380 25479 ft 248 kts 96°
2026-05-03 21:38 48.52725 -70.14782 25713 ft 247 kts 98°
2026-05-03 21:39 48.52764 -70.12193 25970 ft 247 kts 98°
2026-05-03 21:39 48.52808 -70.09610 26238 ft 246 kts 99°
2026-05-03 21:39 48.52845 -70.07032 26486 ft 245 kts 99°
2026-05-03 21:39 48.52890 -70.04466 26727 ft 245 kts 99°
2026-05-03 21:40 48.52930 -70.01854 26753 ft 253 kts 99°
2026-05-03 21:40 48.52964 -69.99153 26776 ft 261 kts 99°
2026-05-03 21:40 48.52996 -69.96374 26786 ft 269 kts 99°
2026-05-03 21:40 48.53033 -69.93517 26789 ft 276 kts 98°
2026-05-03 21:41 48.53357 -69.90576 26787 ft 295 kts 81°
2026-05-03 21:41 48.54373 -69.87780 26787 ft 311 kts 62°
2026-05-03 21:41 48.55526 -69.85022 26784 ft 311 kts 68°
2026-05-03 21:41 48.56558 -69.82145 26786 ft 313 kts 70°
2026-05-03 21:42 48.57570 -69.79219 26786 ft 315 kts 70°
2026-05-03 21:42 48.58595 -69.76273 26790 ft 318 kts 70°
2026-05-03 21:42 48.59638 -69.73320 26779 ft 320 kts 69°
2026-05-03 21:42 48.60698 -69.70361 26780 ft 321 kts 69°
2026-05-03 21:43 48.61771 -69.67394 26781 ft 322 kts 69°
2026-05-03 21:43 48.62851 -69.64420 26777 ft 323 kts 69°
2026-05-03 21:43 48.63935 -69.61439 26740 ft 324 kts 69°
2026-05-03 21:43 48.65021 -69.58455 26758 ft 324 kts 70°
2026-05-03 21:44 48.66106 -69.55470 26768 ft 324 kts 70°
2026-05-03 21:44 48.67192 -69.52485 26782 ft 325 kts 70°
2026-05-03 21:44 48.68293 -69.49473 26783 ft 328 kts 69°
2026-05-03 21:44 48.69397 -69.46438 26786 ft 330 kts 70°
2026-05-03 21:45 48.70503 -69.43379 26793 ft 332 kts 70°
2026-05-03 21:45 48.71615 -69.40295 26787 ft 334 kts 70°
2026-05-03 21:45 48.72730 -69.37199 26792 ft 336 kts 70°
2026-05-03 21:45 48.73850 -69.34083 26798 ft 337 kts 70°
2026-05-03 21:46 48.74974 -69.30960 26804 ft 338 kts 70°
2026-05-03 21:46 48.76102 -69.27827 26780 ft 339 kts 70°
2026-05-03 21:46 48.77234 -69.24679 26786 ft 340 kts 70°
2026-05-03 21:46 48.78348 -69.21575 26788 ft 340 kts 70°
2026-05-03 21:47 48.79480 -69.18419 26789 ft 341 kts 70°
2026-05-03 21:47 48.80611 -69.15264 26783 ft 341 kts 70°
2026-05-03 21:47 48.81739 -69.12113 26791 ft 341 kts 70°
2026-05-03 21:47 48.82870 -69.08950 26797 ft 341 kts 70°
2026-05-03 21:48 48.84001 -69.05777 26805 ft 342 kts 70°
2026-05-03 21:48 48.85132 -69.02606 26796 ft 342 kts 70°
2026-05-03 21:48 48.86264 -68.99427 26797 ft 342 kts 70°
2026-05-03 21:48 48.87394 -68.96251 26778 ft 342 kts 71°
2026-05-03 21:49 48.88524 -68.93069 26782 ft 342 kts 71°
2026-05-03 21:49 48.89651 -68.89891 26788 ft 342 kts 71°
2026-05-03 21:49 48.90780 -68.86707 26795 ft 342 kts 71°
2026-05-03 21:49 48.91909 -68.83520 26792 ft 342 kts 71°
2026-05-03 21:50 48.93036 -68.80332 26801 ft 342 kts 71°
2026-05-03 21:50 48.94162 -68.77141 26794 ft 343 kts 71°
2026-05-03 21:50 48.95291 -68.73939 26795 ft 343 kts 71°
2026-05-03 21:50 48.96418 -68.70739 26801 ft 343 kts 71°
2026-05-03 21:51 48.97543 -68.67541 26798 ft 343 kts 71°
2026-05-03 21:51 48.98668 -68.64341 26797 ft 343 kts 71°
2026-05-03 21:51 48.99791 -68.61140 26797 ft 343 kts 71°
2026-05-03 21:51 49.00915 -68.57935 26797 ft 343 kts 71°
2026-05-03 21:52 49.02038 -68.54727 26798 ft 343 kts 72°
2026-05-03 21:52 49.03157 -68.51522 26795 ft 343 kts 72°
2026-05-03 21:52 49.04277 -68.48317 26790 ft 343 kts 72°
2026-05-03 21:52 49.05396 -68.45110 26792 ft 343 kts 72°
2026-05-03 21:53 49.06517 -68.41893 26784 ft 343 kts 72°
2026-05-03 21:53 49.07634 -68.38685 26790 ft 343 kts 72°
2026-05-03 21:53 49.08750 -68.35470 26784 ft 343 kts 72°
2026-05-03 21:53 49.09864 -68.32258 26784 ft 343 kts 72°
2026-05-03 21:54 49.10977 -68.29050 26769 ft 342 kts 71°
2026-05-03 21:54 49.12089 -68.25842 26778 ft 342 kts 71°
2026-05-03 21:54 49.13306 -68.22701 26778 ft 347 kts 65°
2026-05-03 21:54 49.14744 -68.19771 26776 ft 352 kts 57°
2026-05-03 21:55 49.16404 -68.16951 26779 ft 352 kts 56°
2026-05-03 21:55 49.18017 -68.14150 26781 ft 350 kts 57°
2026-05-03 21:55 49.19612 -68.11346 26782 ft 349 kts 57°
2026-05-03 21:55 49.21184 -68.08577 26783 ft 349 kts 57°
2026-05-03 21:56 49.22797 -68.05739 26782 ft 348 kts 57°
2026-05-03 21:56 49.24362 -68.02992 26786 ft 348 kts 57°
2026-05-03 21:56 49.25956 -68.00198 26788 ft 348 kts 57°
2026-05-03 21:56 49.27567 -67.97370 26784 ft 348 kts 57°
2026-05-03 21:57 49.29158 -67.94579 26794 ft 348 kts 57°
2026-05-03 21:57 49.30730 -67.91819 26790 ft 348 kts 57°
2026-05-03 21:57 49.32342 -67.88974 26378 ft 360 kts 56°
2026-05-03 21:57 49.34000 -67.86035 25910 ft 366 kts 56°
2026-05-03 21:58 49.35674 -67.83080 25438 ft 367 kts 55°
2026-05-03 21:58 49.37351 -67.80130 24979 ft 367 kts 54°
2026-05-03 21:58 49.39034 -67.77171 24525 ft 368 kts 54°
2026-05-03 21:58 49.40719 -67.74202 24070 ft 369 kts 53°
2026-05-03 21:59 49.42401 -67.71227 23629 ft 369 kts 53°
2026-05-03 21:59 49.44083 -67.68244 23148 ft 369 kts 53°
2026-05-03 21:59 49.45763 -67.65264 22624 ft 369 kts 53°
2026-05-03 21:59 49.47442 -67.62280 22107 ft 368 kts 53°
2026-05-03 22:00 49.49117 -67.59299 21603 ft 369 kts 53°
2026-05-03 22:00 49.50791 -67.56317 21103 ft 368 kts 53°
2026-05-03 22:00 49.52466 -67.53329 20612 ft 368 kts 53°
2026-05-03 22:00 49.54134 -67.50345 20125 ft 368 kts 53°
2026-05-03 22:01 49.55799 -67.47360 19653 ft 368 kts 53°
2026-05-03 22:01 49.57433 -67.44381 19160 ft 359 kts 54°
2026-05-03 22:01 49.59021 -67.41447 18694 ft 354 kts 53°
2026-05-03 22:01 49.60612 -67.38582 18232 ft 350 kts 53°
2026-05-03 22:02 49.62198 -67.35761 17734 ft 346 kts 53°
2026-05-03 22:02 49.63769 -67.32965 17213 ft 343 kts 53°
2026-05-03 22:02 49.65318 -67.30196 16704 ft 339 kts 53°
2026-05-03 22:02 49.66851 -67.27449 16209 ft 336 kts 53°
2026-05-03 22:03 49.68356 -67.24745 15723 ft 332 kts 53°
2026-05-03 22:03 49.69845 -67.22066 15246 ft 329 kts 53°
2026-05-03 22:03 49.71328 -67.19395 14768 ft 325 kts 53°
2026-05-03 22:03 49.72790 -67.16751 14297 ft 322 kts 53°
2026-05-03 22:04 49.74235 -67.14144 14036 ft 313 kts 53°
2026-05-03 22:04 49.75648 -67.11600 13580 ft 312 kts 53°
2026-05-03 22:04 49.77060 -67.09044 13054 ft 312 kts 53°
2026-05-03 22:04 49.78442 -67.06527 12547 ft 310 kts 52°
2026-05-03 22:05 49.79832 -67.03994 12044 ft 307 kts 52°
2026-05-03 22:05 49.81208 -67.01487 11551 ft 304 kts 52°
2026-05-03 22:05 49.82565 -66.99014 11055 ft 299 kts 52°
2026-05-03 22:05 49.83895 -66.96578 10570 ft 293 kts 52°
2026-05-03 22:06 49.85205 -66.94195 10092 ft 288 kts 51°
2026-05-03 22:06 49.86500 -66.91850 9615 ft 284 kts 51°
2026-05-03 22:06 49.87776 -66.89536 9093 ft 281 kts 51°
2026-05-03 22:06 49.89035 -66.87245 8574 ft 277 kts 51°
2026-05-03 22:07 49.90277 -66.84991 8074 ft 273 kts 51°
2026-05-03 22:07 49.91507 -66.82768 7578 ft 269 kts 50°
2026-05-03 22:07 49.92716 -66.80578 7088 ft 265 kts 51°
2026-05-03 22:07 49.93906 -66.78417 6606 ft 261 kts 51°
2026-05-03 22:08 49.95065 -66.76271 6128 ft 258 kts 51°
2026-05-03 22:08 49.96216 -66.74167 5620 ft 254 kts 51°
2026-05-03 22:08 49.97346 -66.72082 5121 ft 250 kts 51°
2026-05-03 22:08 49.98464 -66.70032 4624 ft 247 kts 51°
2026-05-03 22:09 49.99564 -66.68015 4117 ft 242 kts 51°
2026-05-03 22:09 50.00580 -66.66114 3621 ft 216 kts 52°
2026-05-03 22:09 50.01497 -66.64413 3246 ft 200 kts 51°
2026-05-03 22:10 50.03401 -66.61075 3209 ft 209 kts 51°
2026-05-03 22:10 50.04430 -66.59475 3195 ft 212 kts 36°
2026-05-03 22:10 50.05835 -66.58775 3189 ft 218 kts
2026-05-03 22:10 50.07307 -66.59352 3189 ft 223 kts 337°
2026-05-03 22:11 50.08704 -66.60351 3202 ft 219 kts 343°
2026-05-03 22:11 50.10135 -66.61133 3206 ft 218 kts 345°
2026-05-03 22:11 50.11568 -66.61888 3206 ft 217 kts 345°
2026-05-03 22:11 50.12999 -66.62604 3213 ft 215 kts 350°
2026-05-03 22:12 50.14431 -66.62401 3155 ft 210 kts 31°
2026-05-03 22:12 50.15359 -66.60707 3011 ft 209 kts 65°
2026-05-03 22:12 50.15829 -66.58601 2972 ft 200 kts 80°
2026-05-03 22:12 50.15994 -66.56490 2940 ft 193 kts 85°
2026-05-03 22:13 50.16092 -66.54427 2952 ft 194 kts 87°
2026-05-03 22:13 50.16159 -66.52336 2947 ft 192 kts 86°
2026-05-03 22:13 50.16289 -66.50281 3028 ft 187 kts 77°
2026-05-03 22:13 50.16707 -66.48377 3054 ft 189 kts 72°
2026-05-03 22:14 50.17091 -66.46435 2677 ft 180 kts 78°
2026-05-03 22:14 50.17377 -66.44537 2393 ft 175 kts 77°
2026-05-03 22:14 50.17673 -66.42839 2335 ft 146 kts 75°
2026-05-03 22:14 50.18045 -66.41391 2134 ft 142 kts 70°
2026-05-03 22:15 50.18490 -66.40043 1952 ft 143 kts 66°
2026-05-03 22:15 50.18933 -66.38792 1829 ft 112 kts 68°
2026-05-03 22:15 50.19277 -66.37796 1575 ft 104 kts 70°
2026-05-03 22:15 50.19533 -66.36758 1294 ft 100 kts 77°
2026-05-03 22:16 50.19755 -66.35801 1290 ft 94 kts 73°
2026-05-03 22:16 50.20035 -66.34857 1161 ft 96 kts 70°
2026-05-03 22:16 50.20316 -66.33903 1031 ft 99 kts 76°
2026-05-03 22:16 50.20500 -66.32883 922 ft 97 kts 77°
2026-05-03 22:17 50.20704 -66.31857 781 ft 102 kts 73°
2026-05-03 22:17 50.20991 -66.30867 657 ft 99 kts 66°
2026-05-03 22:17 50.21251 -66.29872 532 ft 96 kts 69°
2026-05-03 22:17 50.21496 -66.28913 409 ft 97 kts 70°
2026-05-03 22:18 50.21740 -66.27898 225 ft 99 kts 69°
2026-05-03 22:18 50.21947 -66.27050 174 ft 58 kts 69°
2026-05-03 22:18 50.22038 -66.26676 175 ft 33 kts 70°
2026-05-03 22:18 50.22150 -66.26216 173 ft 53 kts 69°
2026-05-03 22:19 50.22288 -66.25632 174 ft 55 kts 68°
2026-05-03 22:19 50.22362 -66.25347 177 ft 22 kts 78°
2026-05-03 22:19 50.22308 -66.25269 175 ft 9 kts 156°
2026-05-03 22:19 50.22236 -66.25254 174 ft 13 kts 178°
2026-05-03 22:20 50.22155 -66.25266 174 ft 10 kts 224°
2026-05-03 22:20 50.22108 -66.25431 174 ft 23 kts 248°
2026-05-03 22:20 50.22042 -66.25698 174 ft 25 kts 250°
2026-05-03 22:20 50.21992 -66.25903 174 ft 17 kts 250°
2026-05-03 22:21 50.21954 -66.26067 174 ft 16 kts 255°
2026-05-03 22:21 50.21933 -66.26265 174 ft 20 kts 269°
2026-05-03 22:21 50.21915 -66.26486 174 ft 17 kts 261°
2026-05-03 22:21 50.21900 -66.26518 174 ft 0 kts 199°